Cleardale, Canada
Current Conditions -  °F | °C
As of 1:28 AM on Friday 26 Dec 2014 (Local Time) from CYXJ Reporting Station
Moderate Fog Moderate Fog  
Wind Chill: -12°   Ceiling: Unl
Heat Index: -2°   Visibility: 0.25mi
Dew Point: -8°   Wind: 5mph
Humidity: 78%   Direction: 130°SE
Pressure: 29.99"   Gusts: NA
Location:  56.33°N, 119.58°W
Report Text: CYXJ 260828Z 13004KT 1/4SM R29/0600V0900FT/N FZFG SKC M19/M22 A2999 RMK FG4 SLP216
Loading
Personal Weather Stations






























Interactive Weather Map New forecast layout! Learn more

10-Day Weather Forecast

Advertisements
Track Severe Weather on mobile